Time;durP1;ratioP1;P1;durP2;ratioP2;P2;SDS_P1;SDS_P2;PMS_P1;PMS_P2;Temp;Humidity;BMP_temperature;BMP_pressure;BME280_temperature;BME280_humidity;BME280_pressure;Samples;Min_cycle;Max_cycle;Signal;HPM_P1;HPM_P2
2022/08/12 00:43:32;;;;;;;3.10;2.33;;;22.50;31.10;;;;;;20549;6772;279781;-88
2022/08/12 00:49:02;;;;;;;2.70;2.50;;;22.90;30.70;;;;;;20563;6789;278634;-88
2022/08/12 00:54:37;;;;;;;2.67;2.47;;;23.30;30.90;;;;;;20578;6777;325601;-88
2022/08/12 00:57:26;;;;;;;3.63;2.60;;;23.50;31.00;;;;;;20620;6785;117424;-88
2022/08/12 01:00:05;;;;;;;2.67;2.47;;;23.30;30.90;;;;;;20790;6827;117539;-89
2022/08/12 01:02:40;;;;;;;2.85;2.58;;;22.90;31.20;;;;;;20564;6827;310031;-88
2022/08/12 01:11:28;;;;;;;2.67;2.47;;;23.00;31.90;;;;;;20787;6777;117222;-88
2022/08/12 01:14:03;;;;;;;2.83;2.33;;;22.80;31.70;;;;;;20622;6759;308120;-88
2022/08/12 01:16:40;;;;;;;3.08;2.78;;;22.90;32.10;;;;;;20537;6761;310947;-88
2022/08/12 01:19:16;;;;;;;2.70;2.50;;;23.20;32.10;;;;;;20587;6774;308198;-88
2022/08/12 01:22:18;;;;;;;2.70;2.50;;;23.40;32.00;;;;;;20690;6739;286853;-89
2022/08/12 01:25:17;;;;;;;2.60;2.40;;;23.50;31.50;;;;;;20852;6759;116162;-88
2022/08/12 01:27:52;;;;;;;2.50;2.30;;;23.10;31.50;;;;;;20760;6778;117390;-88
2022/08/12 01:30:29;;;;;;;4.00;2.60;;;22.80;32.70;;;;;;20582;6776;295676;-88
2022/08/12 01:33:04;;;;;;;3.03;2.73;;;22.80;32.70;;;;;;20553;6792;277149;-89
2022/08/12 01:35:40;;;;;;;3.10;2.80;;;23.10;32.50;;;;;;20455;6789;311912;-88
2022/08/12 01:38:16;;;;;;;3.33;2.67;;;23.30;32.90;;;;;;20516;6803;310309;-88
2022/08/12 01:40:51;;;;;;;2.97;2.77;;;23.40;32.00;;;;;;20765;6785;119636;-88
2022/08/12 01:43:27;;;;;;;2.50;2.30;;;23.10;32.00;;;;;;20767;6786;116329;-89
2022/08/12 01:46:06;;;;;;;2.60;2.40;;;22.70;32.50;;;;;;20535;6774;280402;-88
2022/08/12 01:49:01;;;;;;;3.00;2.70;;;22.90;32.90;;;;;;20699;6740;276423;-88
2022/08/12 01:51:41;;;;;;;2.70;2.53;;;23.10;32.70;;;;;;20902;6740;116995;-88
2022/08/12 01:54:12;;;;;;;2.73;2.53;;;22.80;32.50;;;;;;20903;6796;117045;-88
2022/08/12 01:56:51;;;;;;;3.17;2.40;;;22.50;32.90;;;;;;20780;6740;117158;-88
2022/08/12 01:59:49;;;;;;;2.83;2.60;;;22.20;33.20;;;;;;20407;6809;281200;-88
2022/08/12 02:02:45;;;;;;;4.23;2.70;;;22.40;33.60;;;;;;20645;6754;276784;-88
2022/08/12 02:11:57;;;;;;;2.83;2.60;;;23.10;32.90;;;;;;20541;6785;307256;-88
2022/08/12 02:14:36;;;;;;;2.90;2.70;;;23.20;32.80;;;;;;20564;6785;278235;-88
2022/08/12 02:17:31;;;;;;;2.90;2.70;;;23.20;32.70;;;;;;20420;6785;341730;-88
2022/08/12 02:20:27;;;;;;;2.20;2.10;;;23.20;32.70;;;;;;20775;6785;120733;-89
2022/08/12 02:23:03;;;;;;;4.33;2.50;;;22.80;32.90;;;;;;20817;6771;120148;-89
2022/08/12 02:25:38;;;;;;;3.73;2.70;;;22.30;34.00;;;;;;20554;6771;283184;-88
2022/08/12 02:28:14;;;;;;;4.20;2.50;;;22.30;33.70;;;;;;20811;6773;117755;-88
2022/08/12 02:30:49;;;;;;;3.30;2.70;;;22.20;33.60;;;;;;20864;6755;117084;-88
2022/08/12 02:33:25;;;;;;;2.80;2.60;;;21.90;33.90;;;;;;20642;6812;277509;-88
2022/08/12 02:36:01;;;;;;;2.77;2.67;;;22.10;34.30;;;;;;20799;6756;116368;-88
2022/08/12 02:38:36;;;;;;;3.60;2.80;;;22.00;34.10;;;;;;20868;6756;116933;-88
2022/08/12 02:41:12;;;;;;;2.87;2.63;;;21.90;34.70;;;;;;20659;6756;306722;-88
2022/08/12 02:43:51;;;;;;;3.00;2.63;;;21.90;34.70;;;;;;20855;6756;116818;-88
2022/08/12 02:46:27;;;;;;;2.80;2.63;;;21.80;34.40;;;;;;20755;6755;117401;-88
2022/08/12 02:49:09;;;;;;;3.00;2.60;;;21.50;34.60;;;;;;20871;6755;117476;-88
2022/08/12 02:51:46;;;;;;;4.00;2.47;;;21.20;35.60;;;;;;20831;6812;117142;-88
2022/08/12 02:54:22;;;;;;;3.17;2.73;;;21.20;35.00;;;;;;20654;6756;277435;-88
2022/08/12 02:56:59;;;;;;;2.47;2.37;;;21.50;35.00;;;;;;20703;6813;117248;-88
2022/08/12 02:59:34;;;;;;;3.03;2.83;;;21.50;34.60;;;;;;20613;6764;306211;-89
2022/08/12 03:02:11;;;;;;;3.03;2.93;;;21.80;34.90;;;;;;20844;6764;117660;-89
2022/08/12 03:04:45;;;;;;;3.30;3.10;;;21.70;34.60;;;;;;20627;6764;307214;-88
2022/08/12 03:07:25;;;;;;;4.40;4.00;;;21.80;34.90;;;;;;20593;6764;117588;-88
2022/08/12 03:10:01;;;;;;;3.40;3.10;;;21.70;34.60;;;;;;20755;6819;123150;-88
2022/08/12 03:12:36;;;;;;;6.00;4.40;;;21.40;34.90;;;;;;20847;6761;120739;-88
2022/08/12 03:15:12;;;;;;;5.93;5.43;;;21.20;35.20;;;;;;20585;6775;308119;-88
2022/08/12 03:17:54;;;;;;;5.15;4.10;;;21.40;35.60;;;;;;20616;6761;307257;-88
2022/08/12 03:20:30;;;;;;;3.63;3.33;;;21.80;35.10;;;;;;20295;6815;117142;-88
2022/08/12 03:23:10;;;;;;;3.03;2.73;;;21.80;35.40;;;;;;20658;6759;277409;-88
2022/08/12 03:25:45;;;;;;;3.83;2.63;;;21.70;35.50;;;;;;20624;6746;310255;-89
2022/08/12 03:31:17;;;;;;;3.70;2.90;;;22.10;34.70;;;;;;20628;6756;281649;-88
2022/08/12 03:33:54;;;;;;;2.90;2.70;;;22.20;34.70;;;;;;20534;6772;283067;-88
2022/08/12 03:36:32;;;;;;;2.85;2.65;;;22.20;34.50;;;;;;20244;6880;342203;-89
2022/08/12 03:42:00;;;;;;;2.83;2.60;;;21.90;34.80;;;;;;20740;6786;117761;-89
2022/08/12 04:02:33;;;;;;;3.17;3.00;;;21.60;35.40;;;;;;20876;6754;116467;-89
2022/08/12 04:05:07;;;;;;;3.63;2.87;;;21.60;35.40;;;;;;20589;6826;279699;-88
2022/08/12 04:07:43;;;;;;;6.60;3.07;;;21.40;35.70;;;;;;20788;6774;117522;-90
2022/08/12 04:10:18;;;;;;;2.80;2.60;;;21.30;35.60;;;;;;20804;6774;117138;-88
2022/08/12 04:13:15;;;;;;;2.87;2.40;;;21.00;35.90;;;;;;20810;6774;117465;-89
2022/08/12 04:15:51;;;;;;;2.90;2.70;;;21.10;36.70;;;;;;20520;6774;335899;-93
2022/08/12 04:18:27;;;;;;;3.60;2.70;;;21.00;37.30;;;;;;20810;6773;117123;-89
2022/08/12 04:21:03;;;;;;;4.50;2.90;;;21.00;36.40;;;;;;20570;6788;279062;-89
2022/08/12 04:23:39;;;;;;;3.17;2.90;;;21.20;36.50;;;;;;20573;6773;307679;-89
2022/08/12 04:26:14;;;;;;;3.00;2.80;;;21.80;35.70;;;;;;20552;6771;292681;-88
2022/08/12 04:28:50;;;;;;;3.15;2.85;;;21.80;35.70;;;;;;20640;6761;277689;-88
2022/08/12 04:31:36;;;;;;;2.97;2.87;;;21.90;35.50;;;;;;20651;6756;307291;-88
2022/08/12 04:34:14;;;;;;;5.90;2.85;;;22.00;35.30;;;;;;20675;6755;330926;-89
2022/08/12 04:36:50;;;;;;;4.43;2.80;;;22.00;35.50;;;;;;20545;6771;297013;-88
2022/08/12 04:39:25;;;;;;;3.00;2.80;;;22.00;35.40;;;;;;20567;6785;307668;-88
2022/08/12 04:42:01;;;;;;;3.20;3.00;;;22.10;35.40;;;;;;20531;6789;289862;-88
2022/08/12 04:44:37;;;;;;;3.77;2.80;;;22.20;35.40;;;;;;20550;6789;278465;-88
2022/08/12 04:47:15;;;;;;;3.00;2.80;;;22.20;35.40;;;;;;20626;6789;118364;-88
2022/08/12 04:49:49;;;;;;;3.10;2.80;;;21.90;35.60;;;;;;20589;6774;293249;-89
2022/08/12 04:52:25;;;;;;;2.60;2.50;;;21.90;36.00;;;;;;20884;6755;117466;-89
2022/08/12 04:55:01;;;;;;;3.00;2.90;;;21.60;36.10;;;;;;20883;6755;116989;-89
2022/08/12 04:57:37;;;;;;;3.07;2.87;;;21.40;37.20;;;;;;20467;6816;278744;-88
2022/08/12 05:00:13;;;;;;;3.30;2.67;;;21.40;37.20;;;;;;20781;6789;117274;-88
2022/08/12 05:02:48;;;;;;;3.03;2.87;;;21.40;37.10;;;;;;20890;6755;117436;-89
2022/08/12 05:05:26;;;;;;;3.00;2.80;;;21.30;37.90;;;;;;20701;6741;276536;-89
2022/08/12 05:08:01;;;;;;;2.77;2.67;;;21.30;37.90;;;;;;20901;6741;116934;-88
2022/08/12 05:10:37;;;;;;;2.80;2.60;;;21.30;37.60;;;;;;20929;6741;117440;-88
2022/08/12 05:13:17;;;;;;;2.77;2.67;;;21.10;37.50;;;;;;20930;6741;116907;-88
2022/08/12 05:15:53;;;;;;;2.83;2.50;;;21.00;37.80;;;;;;20560;6750;331786;-88
2022/08/12 05:18:28;;;;;;;3.00;2.90;;;21.30;38.50;;;;;;20694;6749;290561;-88
2022/08/12 05:21:04;;;;;;;3.47;3.17;;;21.70;37.50;;;;;;20701;6739;308979;-88
2022/08/12 05:23:39;;;;;;;3.37;3.07;;;22.10;36.80;;;;;;20887;6741;118416;-88
2022/08/12 05:26:15;;;;;;;4.00;3.17;;;21.90;36.50;;;;;;20819;6746;117512;-89
2022/08/12 05:28:52;;;;;;;3.33;3.13;;;21.60;36.80;;;;;;20699;6746;305874;-88
2022/08/12 05:31:26;;;;;;;3.40;3.10;;;21.70;36.50;;;;;;20694;6746;336227;-88
2022/08/12 05:34:02;;;;;;;3.00;2.90;;;22.00;36.40;;;;;;20864;6761;117237;-88
2022/08/12 05:36:37;;;;;;;2.87;2.77;;;21.80;36.30;;;;;;20658;6788;117483;-88
2022/08/12 05:39:13;;;;;;;3.70;3.17;;;21.50;36.70;;;;;;20685;6745;311386;-88
2022/08/12 05:41:48;;;;;;;4.68;3.00;;;21.60;36.80;;;;;;20621;6760;336842;-89
2022/08/12 05:44:24;;;;;;;3.60;2.93;;;21.90;36.20;;;;;;20900;6745;117036;-88
2022/08/12 05:47:00;;;;;;;3.13;2.93;;;21.70;36.30;;;;;;20528;6746;311649;-88
2022/08/12 05:49:39;;;;;;;2.93;2.80;;;21.90;36.70;;;;;;20879;6746;117137;-88
2022/08/12 05:52:11;;;;;;;4.77;3.00;;;21.70;36.70;;;;;;20657;6760;277620;-88
2022/08/12 05:54:46;;;;;;;3.03;2.80;;;21.90;37.10;;;;;;20823;6770;118983;-88
2022/08/12 05:57:22;;;;;;;3.17;2.87;;;21.80;37.00;;;;;;20479;6757;310126;-89
2022/08/12 05:59:57;;;;;;;3.00;2.80;;;22.00;37.00;;;;;;20896;6741;119036;-88
2022/08/12 06:02:34;;;;;;;3.27;3.07;;;21.90;37.00;;;;;;20673;6798;276006;-88
2022/08/12 06:05:09;;;;;;;2.90;2.70;;;22.10;37.20;;;;;;20694;6742;304599;-88
2022/08/12 06:07:46;;;;;;;3.23;2.77;;;22.40;36.70;;;;;;20685;6741;324564;-88
2022/08/12 06:10:21;;;;;;;2.70;2.60;;;22.70;36.20;;;;;;20908;6742;117160;-88
2022/08/12 06:12:57;;;;;;;3.07;2.87;;;22.60;36.60;;;;;;20614;6755;307594;-88
2022/08/12 06:15:36;;;;;;;2.77;2.57;;;22.60;36.00;;;;;;20879;6733;119990;-88
2022/08/12 06:18:09;;;;;;;3.57;3.37;;;22.50;36.00;;;;;;20848;6761;117315;-88
2022/08/12 06:20:48;;;;;;;3.77;2.70;;;22.30;36.40;;;;;;20943;6733;117391;-88
2022/08/12 06:23:27;;;;;;;3.33;3.10;;;22.10;36.70;;;;;;20728;6733;276386;-88
2022/08/12 06:26:09;;;;;;;4.20;3.80;;;22.40;36.50;;;;;;20858;6732;117559;-88
2022/08/12 06:28:35;;;;;;;4.50;2.77;;;22.40;36.30;;;;;;20721;6731;277078;-88
2022/08/12 06:31:21;;;;;;;3.92;2.60;;;22.70;35.70;;;;;;20708;6742;276970;-88
2022/08/12 06:33:48;;;;;;;2.90;2.63;;;23.20;35.70;;;;;;20833;6761;129092;-90
2022/08/12 06:36:27;;;;;;;3.27;2.90;;;23.20;35.60;;;;;;20534;6761;310993;-89
2022/08/12 06:38:59;;;;;;;3.08;2.75;;;23.40;34.70;;;;;;20685;6746;308730;-88
2022/08/12 06:44:31;;;;;;;2.80;2.57;;;23.90;33.80;;;;;;20820;6771;117210;-88
2022/08/12 06:47:07;;;;;;;3.90;2.30;;;23.90;33.80;;;;;;20748;6748;117214;-88
2022/08/12 06:49:43;;;;;;;3.00;2.73;;;23.70;34.20;;;;;;20724;6731;278499;-88
2022/08/12 06:52:33;;;;;;;3.78;2.90;;;24.10;34.20;;;;;;20760;6731;310198;-88
2022/08/12 06:55:00;;;;;;;2.77;2.50;;;25.50;32.40;;;;;;20753;6731;305241;-88
2022/08/12 06:57:35;;;;;;;2.80;2.60;;;25.40;32.30;;;;;;20519;6802;309620;-88
2022/08/12 07:00:14;;;;;;;4.27;3.07;;;26.00;31.60;;;;;;20842;6759;119202;-89
2022/08/12 07:02:48;;;;;;;3.97;2.92;;;26.10;31.90;;;;;;20732;6731;306497;-88
2022/08/12 07:05:25;;;;;;;2.77;2.57;;;26.30;31.30;;;;;;20712;6731;306576;-88
2022/08/12 07:08:08;;;;;;;2.50;2.40;;;26.50;31.50;;;;;;20928;6727;117224;-90
2022/08/12 07:10:40;;;;;;;2.50;2.40;;;26.50;31.10;;;;;;20743;6727;337023;-89
2022/08/12 07:13:16;;;;;;;3.73;2.80;;;26.80;30.00;;;;;;20746;6727;306427;-92
2022/08/12 07:16:00;;;;;;;3.10;2.90;;;26.80;30.00;;;;;;20861;6727;117869;-89
2022/08/12 07:18:37;;;;;;;2.90;2.70;;;26.70;30.20;;;;;;20911;6742;117914;-89
2022/08/12 07:21:13;;;;;;;3.17;2.87;;;26.40;30.90;;;;;;20732;6742;282567;-88
2022/08/12 07:23:49;;;;;;;2.73;2.60;;;26.60;30.10;;;;;;20936;6732;117472;-89
2022/08/12 07:26:24;;;;;;;3.00;2.80;;;26.60;30.30;;;;;;20872;6732;116177;-88
2022/08/12 07:28:59;;;;;;;2.67;2.47;;;26.40;30.70;;;;;;20927;6742;117081;-89
2022/08/12 07:31:38;;;;;;;3.10;2.80;;;26.40;31.90;;;;;;20740;6732;304014;-90
2022/08/12 07:34:14;;;;;;;8.13;2.40;;;26.70;30.70;;;;;;20948;6732;117062;-90
2022/08/12 07:36:50;;;;;;;3.70;2.60;;;26.90;31.30;;;;;;20609;6732;307259;-89
2022/08/12 07:39:29;;;;;;;3.03;2.50;;;27.40;30.10;;;;;;20932;6742;116604;-89
2022/08/12 07:42:04;;;;;;;6.62;2.83;;;27.30;30.00;;;;;;20695;6742;304664;-88
2022/08/12 07:44:39;;;;;;;2.90;2.70;;;27.70;29.30;;;;;;20713;6742;286081;-89
2022/08/12 07:47:15;;;;;;;2.57;2.40;;;28.00;29.30;;;;;;20555;6742;307623;-89
2022/08/12 07:50:00;;;;;;;4.53;2.60;;;28.40;29.00;;;;;;20916;6742;116960;-89
2022/08/12 07:52:26;;;;;;;2.80;2.60;;;28.40;29.20;;;;;;20733;6742;305080;-89
2022/08/12 07:55:02;;;;;;;4.05;2.60;;;28.60;28.20;;;;;;20671;6756;300070;-89
2022/08/12 07:57:48;;;;;;;2.97;2.65;;;29.10;27.90;;;;;;20473;6812;342455;-89
2022/08/12 08:00:24;;;;;;;5.80;2.40;;;29.00;27.80;;;;;;20885;6755;116867;-88
2022/08/12 08:02:59;;;;;;;3.33;2.70;;;28.90;28.10;;;;;;20617;6774;308977;-89
2022/08/12 08:05:45;;;;;;;3.93;2.70;;;29.10;28.00;;;;;;20501;6835;305913;-89
2022/08/12 08:08:20;;;;;;;4.15;2.50;;;29.40;27.40;;;;;;20679;6746;338407;-89
2022/08/12 08:12:52;;;;;;;3.07;2.50;;;30.00;27.00;;;;;;20645;6761;279870;-89
2022/08/12 08:13:33;;;;;;;2.87;2.70;;;30.00;27.00;;;;;;20810;6817;117532;-89
2022/08/12 08:16:09;;;;;;;3.40;2.13;;;30.00;27.10;;;;;;20831;6746;117220;-89
2022/08/12 08:18:46;;;;;;;4.57;2.58;;;29.90;26.20;;;;;;20727;6731;336607;-89
2022/08/12 08:21:26;;;;;;;2.30;2.20;;;29.90;26.20;;;;;;20948;6731;117269;-89
2022/08/12 08:24:15;;;;;;;2.87;2.10;;;29.80;26.30;;;;;;20881;6745;117031;-89
2022/08/12 08:26:51;;;;;;;2.33;2.13;;;29.70;26.60;;;;;;20785;6746;117717;-89
2022/08/12 08:29:28;;;;;;;2.53;2.40;;;29.50;26.90;;;;;;20899;6746;118041;-89
2022/08/12 08:32:09;;;;;;;2.33;2.20;;;29.50;26.90;;;;;;20861;6759;117059;-89
2022/08/12 08:34:38;;;;;;;2.63;2.23;;;29.40;26.80;;;;;;21151;6663;66947;-89
2022/08/12 08:37:14;;;;;;;2.97;2.30;;;29.40;26.80;;;;;;20444;6804;279106;-89
2022/08/12 08:39:49;;;;;;;4.67;2.40;;;29.70;25.70;;;;;;20880;6761;116490;-88
2022/08/12 08:42:39;;;;;;;2.47;2.27;;;29.90;25.80;;;;;;20952;6746;116210;-88
2022/08/12 08:45:14;;;;;;;2.33;2.13;;;29.80;25.90;;;;;;20850;6760;118612;-91
2022/08/12 08:47:50;;;;;;;2.90;2.60;;;29.80;26.00;;;;;;20899;6749;116929;-89
2022/08/12 08:50:25;;;;;;;3.83;2.47;;;29.70;25.90;;;;;;20847;6763;117153;-89
2022/08/12 08:53:01;;;;;;;2.67;2.40;;;29.80;26.20;;;;;;20647;6763;279294;-89
2022/08/12 08:55:38;;;;;;;2.67;2.10;;;30.30;25.20;;;;;;20801;6756;118020;-89
2022/08/12 08:58:12;;;;;;;2.30;2.20;;;30.50;25.30;;;;;;20639;6761;306118;-89
2022/08/12 09:00:58;;;;;;;2.83;2.30;;;31.20;24.70;;;;;;20647;6761;305622;-89
2022/08/12 09:03:24;;;;;;;2.60;2.20;;;31.20;24.70;;;;;;20851;6771;117143;-89
2022/08/12 09:06:04;;;;;;;2.47;2.00;;;31.20;24.60;;;;;;20734;6774;117689;-89
2022/08/12 09:08:42;;;;;;;2.50;2.20;;;31.00;24.90;;;;;;20824;6776;117243;-90
2022/08/12 09:14:13;;;;;;;2.90;2.17;;;31.00;24.20;;;;;;20640;6762;278582;-89
2022/08/12 09:16:49;;;;;;;2.87;2.30;;;31.40;24.70;;;;;;20753;6759;117206;-89
2022/08/12 09:19:25;;;;;;;2.83;2.10;;;31.30;24.40;;;;;;20841;6762;119189;-89
2022/08/12 09:22:00;;;;;;;2.60;2.37;;;31.10;24.70;;;;;;20823;6776;116949;-89
2022/08/12 09:24:45;;;;;;;3.67;2.20;;;31.00;24.80;;;;;;20855;6761;117538;-89
2022/08/12 09:27:15;;;;;;;2.43;2.30;;;31.00;23.80;;;;;;20488;6762;280631;-89
2022/08/12 09:29:47;;;;;;;2.25;1.85;;;31.00;23.80;;;;;;20656;6748;335439;-89
2022/08/12 09:32:22;;;;;;;1.93;1.83;;;31.30;23.60;;;;;;20912;6744;117139;-89
2022/08/12 09:34:59;;;;;;;2.53;2.20;;;31.40;23.60;;;;;;20669;6744;279193;-89
2022/08/12 09:37:34;;;;;;;2.20;2.10;;;31.40;23.60;;;;;;20442;6817;307310;-89
2022/08/12 09:40:10;;;;;;;2.63;1.63;;;31.60;23.50;;;;;;20918;6747;117633;-89
2022/08/12 09:45:44;;;;;;;2.20;2.10;;;31.70;22.90;;;;;;20649;6633;308003;-89
2022/08/12 09:48:18;;;;;;;2.30;2.10;;;32.10;22.60;;;;;;20637;6761;281754;-90
2022/08/12 09:50:53;;;;;;;2.03;1.83;;;32.00;22.50;;;;;;20627;6771;278099;-90
2022/08/12 09:53:29;;;;;;;2.50;2.20;;;32.20;22.70;;;;;;20620;6771;305981;-89
2022/08/12 09:56:04;;;;;;;2.30;2.20;;;32.30;22.40;;;;;;20759;6771;117634;-89
2022/08/12 09:58:40;;;;;;;3.00;2.27;;;32.10;22.60;;;;;;20857;6771;119934;-90
2022/08/12 10:01:17;;;;;;;2.60;2.10;;;31.80;22.90;;;;;;20622;6771;307425;-89
2022/08/12 10:03:51;;;;;;;2.30;2.00;;;31.90;22.60;;;;;;20510;6792;309022;-89
2022/08/12 10:06:28;;;;;;;2.20;2.00;;;32.00;22.80;;;;;;20491;6779;280448;-89
2022/08/12 10:09:05;;;;;;;2.90;2.10;;;32.30;22.30;;;;;;20635;6767;118197;-90
2022/08/12 10:14:36;;;;;;;2.87;2.00;;;31.80;22.50;;;;;;20712;6754;335355;-89
2022/08/12 10:17:22;;;;;;;3.53;1.83;;;32.00;22.70;;;;;;20774;6754;117734;-91
2022/08/12 10:19:47;;;;;;;2.20;1.93;;;32.00;22.60;;;;;;20923;6754;117120;-90
2022/08/12 10:22:23;;;;;;;1.93;1.83;;;31.80;22.60;;;;;;20937;6753;117303;-90
2022/08/12 10:31:03;;;;;;;1.90;1.80;;;31.60;22.60;;;;;;21281;6502;66924;-90
2022/08/12 10:33:29;;;;;;;2.17;1.83;;;31.70;22.80;;;;;;20755;6782;276828;-89
2022/08/12 10:35:56;;;;;;;2.27;1.80;;;31.80;21.50;;;;;;20857;6782;118428;-89
2022/08/12 10:38:20;;;;;;;2.23;1.70;;;31.90;21.70;;;;;;20480;6864;302499;-90
2022/08/12 10:45:58;;;;;;;2.50;1.75;;;32.20;21.70;;;;;;20496;6862;309135;-89
2022/08/12 10:48:23;;;;;;;1.80;1.70;;;32.30;21.60;;;;;;20493;6859;307476;-89
2022/08/12 10:50:49;;;;;;;1.67;1.57;;;32.50;21.30;;;;;;20538;6844;278846;-89
2022/08/12 10:53:19;;;;;;;3.90;1.90;;;32.70;21.20;;;;;;20543;6844;281400;-90
2022/08/12 10:55:40;;;;;;;4.03;1.97;;;32.80;20.80;;;;;;20721;6847;146902;-89
2022/08/12 10:58:06;;;;;;;3.13;1.80;;;32.70;21.00;;;;;;20707;6857;118137;-89
2022/08/12 11:00:33;;;;;;;1.77;1.67;;;32.40;21.10;;;;;;20722;6856;117774;-90
2022/08/12 11:02:57;;;;;;;1.83;1.70;;;32.20;21.30;;;;;;20466;6871;311455;-89
2022/08/12 11:05:24;;;;;;;2.03;1.90;;;32.30;21.30;;;;;;20679;6871;117650;-89
2022/08/12 11:07:50;;;;;;;3.67;1.90;;;32.30;21.80;;;;;;20653;6871;117542;-89
2022/08/12 11:10:14;;;;;;;2.03;1.93;;;32.10;21.50;;;;;;20713;6858;119946;-89
2022/08/12 11:12:43;;;;;;;5.33;1.80;;;32.00;21.70;;;;;;20724;6861;117254;-89
2022/08/12 11:15:09;;;;;;;3.00;1.60;;;31.90;21.90;;;;;;20739;6848;118501;-89
2022/08/12 11:17:35;;;;;;;2.27;1.50;;;31.80;21.80;;;;;;20519;6848;278225;-88
2022/08/12 11:20:00;;;;;;;3.17;1.87;;;32.00;21.20;;;;;;20478;6858;308293;-89
2022/08/12 11:22:27;;;;;;;1.77;1.67;;;32.60;21.50;;;;;;20514;6852;339508;-89
2022/08/12 11:24:52;;;;;;;2.10;1.80;;;32.60;21.00;;;;;;20526;6852;307612;-89
2022/08/12 11:27:18;;;;;;;1.80;1.70;;;32.80;20.40;;;;;;20480;6867;278334;-89
2022/08/12 11:29:44;;;;;;;2.00;1.80;;;32.80;20.00;;;;;;20720;6852;117569;-89
2022/08/12 11:32:10;;;;;;;1.87;1.60;;;32.60;20.30;;;;;;20510;6852;308337;-89
2022/08/12 11:34:36;;;;;;;4.23;1.53;;;32.50;20.60;;;;;;20700;6864;120958;-89
2022/08/12 11:37:06;;;;;;;1.77;1.60;;;32.40;21.00;;;;;;20558;6842;278095;-89
2022/08/12 11:39:27;;;;;;;2.77;1.60;;;32.40;20.30;;;;;;20686;6857;118062;-89
2022/08/12 11:41:52;;;;;;;1.75;1.65;;;32.30;20.40;;;;;;20492;6856;308127;-89
2022/08/12 11:44:18;;;;;;;1.57;1.47;;;32.30;20.70;;;;;;20721;6856;117211;-89
2022/08/12 11:46:45;;;;;;;2.92;1.70;;;32.30;20.60;;;;;;20508;6856;309362;-89
2022/08/12 11:49:10;;;;;;;2.07;1.47;;;32.30;20.70;;;;;;20718;6857;118203;-89
2022/08/12 11:51:36;;;;;;;1.87;1.40;;;32.10;20.30;;;;;;20753;6842;119382;-90
2022/08/12 11:54:02;;;;;;;2.10;1.27;;;32.00;20.30;;;;;;20559;6842;279254;-89
2022/08/12 11:56:28;;;;;;;2.00;1.70;;;32.10;20.40;;;;;;20560;6842;340422;-89
2022/08/12 11:58:55;;;;;;;1.50;1.40;;;32.30;20.50;;;;;;20725;6857;116353;-90
2022/08/12 12:01:21;;;;;;;1.50;1.50;;;32.20;20.50;;;;;;20728;6857;117785;-89
2022/08/12 12:03:47;;;;;;;1.65;1.52;;;32.10;20.70;;;;;;20542;6842;280093;-90
2022/08/12 12:06:13;;;;;;;2.03;1.63;;;32.10;20.40;;;;;;20720;6857;117584;-90
2022/08/12 12:08:38;;;;;;;2.08;1.80;;;32.10;20.50;;;;;;20558;6842;277719;-90
2022/08/12 12:11:03;;;;;;;1.87;1.77;;;32.20;20.30;;;;;;20774;6842;117344;-90
2022/08/12 12:13:30;;;;;;;2.60;1.60;;;32.00;20.90;;;;;;20768;6842;118060;-90
2022/08/12 12:15:55;;;;;;;2.05;1.70;;;32.10;20.70;;;;;;20540;6842;279507;-90
2022/08/12 12:18:21;;;;;;;1.93;1.70;;;32.10;20.90;;;;;;20549;6842;310209;-90
2022/08/12 12:20:48;;;;;;;3.03;1.70;;;32.40;20.00;;;;;;20746;6842;117703;-90
2022/08/12 12:23:13;;;;;;;2.07;1.40;;;32.40;20.40;;;;;;20560;6842;278581;-90
2022/08/12 12:25:39;;;;;;;1.75;1.48;;;32.50;20.30;;;;;;20539;6842;308469;-89
2022/08/12 12:28:04;;;;;;;2.10;1.60;;;32.70;19.50;;;;;;20551;6842;308954;-90
2022/08/12 12:30:32;;;;;;;2.43;1.60;;;32.80;20.20;;;;;;20554;6842;309754;-90
2022/08/12 12:32:57;;;;;;;1.87;1.62;;;32.90;20.10;;;;;;20555;6842;337706;-90
2022/08/12 12:35:23;;;;;;;1.70;1.60;;;33.00;20.00;;;;;;20548;6842;302274;-90
2022/08/12 12:37:51;;;;;;;1.73;1.63;;;33.20;19.60;;;;;;20544;6839;279777;-90
2022/08/12 12:40:17;;;;;;;2.90;1.40;;;33.40;19.30;;;;;;20558;6839;298412;-90
2022/08/12 12:42:43;;;;;;;3.60;1.70;;;33.40;19.90;;;;;;20575;6839;278461;-90
2022/08/12 12:45:10;;;;;;;1.57;1.47;;;33.50;19.80;;;;;;20548;6839;279299;-89
2022/08/12 12:47:35;;;;;;;3.17;1.60;;;33.70;20.10;;;;;;20741;6839;143726;-89
2022/08/12 12:50:04;;;;;;;1.97;1.53;;;33.60;20.10;;;;;;20566;6839;279470;-90
2022/08/12 12:52:29;;;;;;;2.40;1.50;;;33.60;19.70;;;;;;20790;6837;117289;-90
2022/08/12 12:54:57;;;;;;;1.37;1.37;;;33.40;19.80;;;;;;20784;6838;117219;-90
2022/08/12 12:57:21;;;;;;;1.97;1.70;;;33.00;20.00;;;;;;20769;6838;116227;-90
2022/08/12 13:00:13;;;;;;;1.70;1.60;;;32.50;20.10;;;;;;20747;6838;117302;-90
2022/08/12 13:02:14;;;;;;;2.00;1.90;;;32.10;20.50;;;;;;20519;6838;308599;-89
2022/08/12 13:04:40;;;;;;;1.63;1.53;;;32.10;20.70;;;;;;20796;6838;116373;-89
2022/08/12 13:07:06;;;;;;;1.83;1.70;;;31.90;20.70;;;;;;20610;6838;307157;-89
2022/08/12 13:09:32;;;;;;;1.60;1.50;;;31.90;21.10;;;;;;20838;6838;117770;-89
2022/08/12 13:11:59;;;;;;;2.20;1.47;;;31.80;21.20;;;;;;20836;6838;117560;-89
2022/08/12 13:34:22;;;;;;;4.20;1.80;;;30.60;21.90;;;;;;21254;6502;276548;-88
2022/08/12 13:36:49;;;;;;;1.90;1.70;;;30.70;22.30;;;;;;20803;6784;116414;-91
2022/08/12 13:39:14;;;;;;;3.50;1.83;;;30.70;22.30;;;;;;20534;6853;278159;-89
2022/08/12 13:41:40;;;;;;;3.20;1.80;;;30.80;23.00;;;;;;20505;6850;308636;-89
2022/08/12 13:44:05;;;;;;;3.10;1.70;;;31.10;22.20;;;;;;20510;6857;309074;-89
2022/08/12 13:46:34;;;;;;;1.77;1.67;;;31.40;22.10;;;;;;20713;6857;117202;-89
2022/08/12 13:49:01;;;;;;;1.70;1.60;;;31.30;22.00;;;;;;20504;6857;279913;-89
2022/08/12 13:51:25;;;;;;;1.60;1.50;;;31.50;22.40;;;;;;20686;6857;118096;-89
2022/08/12 13:53:50;;;;;;;1.43;1.40;;;31.50;22.00;;;;;;20668;6869;117951;-89
2022/08/12 13:56:16;;;;;;;1.90;1.80;;;31.30;22.00;;;;;;20467;6872;310146;-89
2022/08/12 13:58:47;;;;;;;2.22;1.70;;;31.40;21.80;;;;;;20488;6861;310751;-89
2022/08/12 14:01:07;;;;;;;1.93;1.80;;;31.50;21.30;;;;;;20685;6861;117509;-89
2022/08/12 14:03:36;;;;;;;3.70;1.80;;;31.40;21.50;;;;;;20683;6861;120450;-89
2022/08/12 14:06:01;;;;;;;1.60;1.52;;;31.10;21.80;;;;;;20491;6861;280160;-89
2022/08/12 14:08:27;;;;;;;3.30;1.60;;;31.10;21.60;;;;;;20492;6861;308182;-89
2022/08/12 14:10:54;;;;;;;1.70;1.60;;;31.40;22.10;;;;;;20498;6861;278981;-89
2022/08/12 14:13:22;;;;;;;1.77;1.60;;;31.60;22.00;;;;;;20493;6861;340031;-89
2022/08/12 14:15:47;;;;;;;1.63;1.63;;;31.80;21.80;;;;;;20688;6861;117880;-88
2022/08/12 14:18:15;;;;;;;1.93;1.83;;;31.70;21.70;;;;;;20702;6861;117422;-89
2022/08/12 14:20:42;;;;;;;2.08;1.80;;;31.40;21.70;;;;;;20503;6861;308249;-89
2022/08/12 14:23:09;;;;;;;1.80;1.70;;;31.50;22.30;;;;;;20482;6861;278620;-89
2022/08/12 14:25:34;;;;;;;1.62;1.52;;;31.70;21.60;;;;;;20477;6861;307761;-89
2022/08/12 14:28:10;;;;;;;1.90;1.70;;;31.80;22.00;;;;;;20495;6861;290753;-89
2022/08/12 14:30:32;;;;;;;2.07;1.90;;;32.00;21.10;;;;;;20686;6861;118125;-89
2022/08/12 14:33:02;;;;;;;1.80;1.70;;;31.80;21.10;;;;;;20503;6861;279177;-89
2022/08/12 14:35:26;;;;;;;1.90;1.80;;;31.90;21.50;;;;;;20480;6861;311063;-90
2022/08/12 14:37:51;;;;;;;1.83;1.60;;;32.10;21.60;;;;;;20697;6858;120384;-89
2022/08/12 14:40:17;;;;;;;3.53;1.70;;;31.90;21.40;;;;;;20721;6858;117472;-90
2022/08/12 14:42:43;;;;;;;2.40;1.67;;;31.80;21.70;;;;;;20486;6861;308454;-90
2022/08/12 14:45:10;;;;;;;1.77;1.42;;;32.00;21.40;;;;;;20480;6868;308623;-90
2022/08/12 14:47:36;;;;;;;1.87;1.50;;;32.30;21.10;;;;;;20461;6869;278006;-89
2022/08/12 14:50:02;;;;;;;2.90;1.55;;;32.50;20.90;;;;;;20663;6855;118023;-89
2022/08/12 14:52:27;;;;;;;2.67;1.80;;;32.40;20.90;;;;;;20513;6855;307936;-89
2022/08/12 14:54:53;;;;;;;2.13;1.90;;;32.40;20.90;;;;;;20731;6855;118821;-89
2022/08/12 14:57:20;;;;;;;2.00;1.60;;;32.00;20.90;;;;;;20750;6847;117518;-89
2022/08/12 15:02:30;;;;;;;1.83;1.73;;;32.00;21.10;;;;;;20748;6847;117305;-90
2022/08/12 15:04:57;;;;;;;1.87;1.77;;;31.70;21.30;;;;;;20755;6847;117171;-90
2022/08/12 15:07:22;;;;;;;1.80;1.70;;;31.40;21.70;;;;;;20514;6847;291380;-90
2022/08/12 15:09:47;;;;;;;2.55;1.95;;;31.40;22.10;;;;;;20737;6847;117724;-89
2022/08/12 15:12:14;;;;;;;2.90;1.60;;;31.20;22.10;;;;;;20545;6847;281017;-90
2022/08/12 15:14:41;;;;;;;2.27;1.70;;;31.30;22.40;;;;;;20537;6847;310420;-89
2022/08/12 15:17:05;;;;;;;2.23;1.70;;;31.50;22.00;;;;;;20541;6847;304316;-89